Norwegian: Past 24 Hour Conditions

 

Repulse Bay Airport

10:00 AM CDT 30 October 2014
This table is a summary of hourly weather conditions for the past 24 hours.
Date / Time
(CDT)
Wind(knots) Conditions Visibility(km) Pressure(kPa) Air tempC) Relative humidity(%) Dew pointC) Wind Chill
30 October 2014
10:00 NNW 2 Mainly Sunny 32 102.1 -16 77 -19 -19
9:00 NNW 4 Mainly Sunny 32 102.1 -16 77 -19 -21
8:00 N 1 Mainly Clear 32 102.1 -16 76 -19 -17
7:00 NNW 11 gust 18 Drifting Snow 24 102.0 -15 76 -19 -25
6:00 NW 10 gust 16 N/A N/A 102.0 -16 76 -19 -25
5:00 NNW 11 N/A N/A 102.0 -16 77 -19 -25
4:00 NNW 12 N/A N/A 102.0 -16 78 -19 -25
3:00 NNW 13 N/A N/A 102.0 -15 81 -18 -26
2:00 NNW 15 N/A N/A 101.9 -15 80 -18 -26
1:00 NNW 11 gust 16 N/A N/A 101.9 -14 80 -17 -22
0:00 NNW 13 N/A N/A 101.9 -13 80 -16 -23
29 October 2014
23:00 NNW 13 N/A N/A 101.9 -14 80 -16 -23
22:00 NNW 14 N/A N/A 101.8 -13 80 -16 -23
21:00 NNW 10 N/A N/A 101.8 -13 80 -16 -21
20:00 NNW 10 N/A N/A 101.8 -13 79 -16 -21
19:00 NNW 5 N/A N/A 101.8 -13 80 -16 -19
18:00 NNW 9 N/A N/A 101.8 -13 77 -16 -21
17:00 NNW 11 gust 17 Light Snow 16 101.8 -13 80 -16 -22
16:00 NNW 9 Light Snow 16 101.8 -13 80 -16 -21
15:00 NW 8 Light Snow 8 101.7 -13 78 -17 -21
14:00 NNW 6 Light Snow 3 101.7 -13 82 -16 -20
13:00 NNW 8 Light Snow 8 101.7 -14 79 -17 -21
12:00 NW 8 Light Snow 8 101.7 -14 80 -17 -22
11:00 NW 8 Light Snow 8 101.7 -14 81 -16 -21
10:00 NNW 11 Mostly Cloudy 32 101.7 -14 82 -16 -22
 
Map of Arctic - Eastern Arctic marine weather areas Baker Lake Airport Chesterfield Inlet Airport Coral Harbour Airport Gjoa Haven Airport Kugaaruk Airport Rankin Inlet Airport Shepherd Bay Airport Whale Cove Airport Arctic Bay Brevoort Island Qikiqtarjuaq Airport Cape Dorset Airport Cape Dyer Cape Hooper Clyde Airport Grise Fiord Airport Hall Beach Airport Igloolik Airport Iqaluit Airport Longstaff Bluff Pangnirtung Airport Pond Inlet Airport Repulse Bay Airport Resolute Airport Resolution Island Rowley Island Airport Taloyoak Airport Wager Bay Akulivik Airport Ivujivik Airport Puvirnituq Airport Kangiqsujuaq Airport Kangirsuk Airport Quaqtaq Airport Tasiujaq Airport Cape Kakkiviak Cape Kiglapait Nain Airport Saglek Cape Mercy Kimmirut Airport Aupaluk Airport Salluit Airport Kangiqsualujjuaq Airport Fort Ross
Legend: buoyBuoy land stationLand Station